sensor_id;sensor_type;location;lat;lon;timestamp;temperature;humidity
65584;DHT22;73032;43.592;1.458;2023-12-20T00:01:57;7.36;84.82
65584;DHT22;73032;43.592;1.458;2023-12-20T00:04:24;7.42;84.64
65584;DHT22;73032;43.592;1.458;2023-12-20T00:06:51;7.43;84.36
65584;DHT22;73032;43.592;1.458;2023-12-20T00:09:18;7.37;84.69
65584;DHT22;73032;43.592;1.458;2023-12-20T00:11:45;7.37;84.54
65584;DHT22;73032;43.592;1.458;2023-12-20T00:14:12;7.39;84.62
65584;DHT22;73032;43.592;1.458;2023-12-20T00:16:39;7.33;85.15
65584;DHT22;73032;43.592;1.458;2023-12-20T00:19:06;7.39;85.04
65584;DHT22;73032;43.592;1.458;2023-12-20T00:21:33;7.36;85.25
65584;DHT22;73032;43.592;1.458;2023-12-20T00:23:59;7.37;85.16
65584;DHT22;73032;43.592;1.458;2023-12-20T00:26:26;7.39;85.02
65584;DHT22;73032;43.592;1.458;2023-12-20T00:28:54;7.42;84.98
65584;DHT22;73032;43.592;1.458;2023-12-20T00:31:21;7.50;84.73
65584;DHT22;73032;43.592;1.458;2023-12-20T00:33:48;7.44;84.60
65584;DHT22;73032;43.592;1.458;2023-12-20T00:36:15;7.46;84.70
65584;DHT22;73032;43.592;1.458;2023-12-20T00:38:41;7.49;84.90
65584;DHT22;73032;43.592;1.458;2023-12-20T00:41:08;7.49;84.88
65584;DHT22;73032;43.592;1.458;2023-12-20T00:43:35;7.50;84.95
65584;DHT22;73032;43.592;1.458;2023-12-20T00:46:01;7.52;84.84
65584;DHT22;73032;43.592;1.458;2023-12-20T00:48:28;7.54;84.65
65584;DHT22;73032;43.592;1.458;2023-12-20T00:50:57;7.54;84.68
65584;DHT22;73032;43.592;1.458;2023-12-20T00:53:24;7.54;84.82
65584;DHT22;73032;43.592;1.458;2023-12-20T00:55:50;7.54;84.95
65584;DHT22;73032;43.592;1.458;2023-12-20T00:58:17;7.54;84.99
65584;DHT22;73032;43.592;1.458;2023-12-20T01:00:44;7.57;85.05
65584;DHT22;73032;43.592;1.458;2023-12-20T01:03:11;7.60;84.95
65584;DHT22;73032;43.592;1.458;2023-12-20T01:05:37;7.57;85.02
65584;DHT22;73032;43.592;1.458;2023-12-20T01:08:04;7.57;85.03
65584;DHT22;73032;43.592;1.458;2023-12-20T01:10:31;7.59;85.05
65584;DHT22;73032;43.592;1.458;2023-12-20T01:13:00;7.57;85.08
65584;DHT22;73032;43.592;1.458;2023-12-20T01:15:27;7.57;84.88
65584;DHT22;73032;43.592;1.458;2023-12-20T01:17:54;7.56;84.89
65584;DHT22;73032;43.592;1.458;2023-12-20T01:20:23;7.53;85.03
65584;DHT22;73032;43.592;1.458;2023-12-20T01:22:50;7.54;84.72
65584;DHT22;73032;43.592;1.458;2023-12-20T01:25:16;7.56;84.75
65584;DHT22;73032;43.592;1.458;2023-12-20T01:27:43;7.57;84.92
65584;DHT22;73032;43.592;1.458;2023-12-20T01:30:11;7.57;84.95
65584;DHT22;73032;43.592;1.458;2023-12-20T01:32:38;7.60;85.06
65584;DHT22;73032;43.592;1.458;2023-12-20T01:35:04;7.60;85.00
65584;DHT22;73032;43.592;1.458;2023-12-20T01:37:32;7.60;85.00
65584;DHT22;73032;43.592;1.458;2023-12-20T01:39:58;7.62;85.17
65584;DHT22;73032;43.592;1.458;2023-12-20T01:42:25;7.60;85.22
65584;DHT22;73032;43.592;1.458;2023-12-20T01:44:52;7.64;85.24
65584;DHT22;73032;43.592;1.458;2023-12-20T01:47:19;7.64;85.23
65584;DHT22;73032;43.592;1.458;2023-12-20T01:49:45;7.67;85.26
65584;DHT22;73032;43.592;1.458;2023-12-20T01:52:12;7.63;85.36
65584;DHT22;73032;43.592;1.458;2023-12-20T01:54:40;7.70;85.28
65584;DHT22;73032;43.592;1.458;2023-12-20T01:57:08;7.69;85.27
65584;DHT22;73032;43.592;1.458;2023-12-20T01:59:36;7.67;85.31
65584;DHT22;73032;43.592;1.458;2023-12-20T02:02:03;7.73;85.25
65584;DHT22;73032;43.592;1.458;2023-12-20T02:04:30;7.73;85.19
65584;DHT22;73032;43.592;1.458;2023-12-20T02:06:58;7.76;85.17
65584;DHT22;73032;43.592;1.458;2023-12-20T02:09:27;7.77;85.21
65584;DHT22;73032;43.592;1.458;2023-12-20T02:11:54;7.78;85.24
65584;DHT22;73032;43.592;1.458;2023-12-20T02:14:20;7.77;85.25
65584;DHT22;73032;43.592;1.458;2023-12-20T02:16:48;7.81;84.92
65584;DHT22;73032;43.592;1.458;2023-12-20T02:19:15;7.78;84.97
65584;DHT22;73032;43.592;1.458;2023-12-20T02:21:42;7.81;85.04
65584;DHT22;73032;43.592;1.458;2023-12-20T02:24:09;7.84;84.92
65584;DHT22;73032;43.592;1.458;2023-12-20T02:26:35;7.83;84.93
65584;DHT22;73032;43.592;1.458;2023-12-20T02:29:02;7.83;85.01
65584;DHT22;73032;43.592;1.458;2023-12-20T02:31:29;7.80;84.95
65584;DHT22;73032;43.592;1.458;2023-12-20T02:33:55;7.81;84.93
65584;DHT22;73032;43.592;1.458;2023-12-20T02:36:22;7.83;85.01
65584;DHT22;73032;43.592;1.458;2023-12-20T02:38:49;7.83;85.10
65584;DHT22;73032;43.592;1.458;2023-12-20T02:41:17;7.83;85.09
65584;DHT22;73032;43.592;1.458;2023-12-20T02:43:45;7.86;85.06
65584;DHT22;73032;43.592;1.458;2023-12-20T02:46:12;7.87;85.15
65584;DHT22;73032;43.592;1.458;2023-12-20T02:48:40;7.86;85.14
65584;DHT22;73032;43.592;1.458;2023-12-20T02:51:06;7.87;85.07
65584;DHT22;73032;43.592;1.458;2023-12-20T02:53:33;7.84;85.08
65584;DHT22;73032;43.592;1.458;2023-12-20T02:56:00;7.87;85.02
65584;DHT22;73032;43.592;1.458;2023-12-20T02:58:26;7.91;85.01
65584;DHT22;73032;43.592;1.458;2023-12-20T03:00:53;7.93;84.95
65584;DHT22;73032;43.592;1.458;2023-12-20T03:03:20;7.91;84.93
65584;DHT22;73032;43.592;1.458;2023-12-20T03:05:47;7.94;85.00
65584;DHT22;73032;43.592;1.458;2023-12-20T03:08:14;7.95;85.02
65584;DHT22;73032;43.592;1.458;2023-12-20T03:10:41;7.94;85.07
65584;DHT22;73032;43.592;1.458;2023-12-20T03:13:07;7.95;85.04
65584;DHT22;73032;43.592;1.458;2023-12-20T03:15:34;7.95;85.08
65584;DHT22;73032;43.592;1.458;2023-12-20T03:18:01;7.95;85.13
65584;DHT22;73032;43.592;1.458;2023-12-20T03:20:28;7.97;85.25
65584;DHT22;73032;43.592;1.458;2023-12-20T03:22:54;7.97;85.41
65584;DHT22;73032;43.592;1.458;2023-12-20T03:25:21;7.93;85.60
65584;DHT22;73032;43.592;1.458;2023-12-20T03:27:48;7.94;85.83
65584;DHT22;73032;43.592;1.458;2023-12-20T03:30:15;7.94;85.97
65584;DHT22;73032;43.592;1.458;2023-12-20T03:32:42;7.93;86.11
65584;DHT22;73032;43.592;1.458;2023-12-20T03:35:08;7.93;86.21
65584;DHT22;73032;43.592;1.458;2023-12-20T03:37:36;7.90;86.29
65584;DHT22;73032;43.592;1.458;2023-12-20T03:40:03;7.90;86.48
65584;DHT22;73032;43.592;1.458;2023-12-20T03:42:30;7.90;86.58
65584;DHT22;73032;43.592;1.458;2023-12-20T03:44:56;7.87;86.77
65584;DHT22;73032;43.592;1.458;2023-12-20T03:47:23;7.87;86.93
65584;DHT22;73032;43.592;1.458;2023-12-20T03:49:50;7.86;87.12
65584;DHT22;73032;43.592;1.458;2023-12-20T03:52:16;7.84;87.15
65584;DHT22;73032;43.592;1.458;2023-12-20T03:54:43;7.84;87.34
65584;DHT22;73032;43.592;1.458;2023-12-20T03:57:10;7.80;87.48
65584;DHT22;73032;43.592;1.458;2023-12-20T03:59:37;7.77;87.59
65584;DHT22;73032;43.592;1.458;2023-12-20T04:02:04;7.78;87.68
65584;DHT22;73032;43.592;1.458;2023-12-20T04:04:31;7.78;87.91
65584;DHT22;73032;43.592;1.458;2023-12-20T04:06:58;7.76;88.04
65584;DHT22;73032;43.592;1.458;2023-12-20T04:09:25;7.77;88.06
65584;DHT22;73032;43.592;1.458;2023-12-20T04:11:51;7.73;88.25
65584;DHT22;73032;43.592;1.458;2023-12-20T04:14:18;7.73;88.40
65584;DHT22;73032;43.592;1.458;2023-12-20T04:16:45;7.70;88.58
65584;DHT22;73032;43.592;1.458;2023-12-20T04:19:13;7.71;88.73
65584;DHT22;73032;43.592;1.458;2023-12-20T04:21:40;7.73;88.76
65584;DHT22;73032;43.592;1.458;2023-12-20T04:24:07;7.74;88.86
65584;DHT22;73032;43.592;1.458;2023-12-20T04:26:34;7.76;89.01
65584;DHT22;73032;43.592;1.458;2023-12-20T04:29:01;7.74;89.03
65584;DHT22;73032;43.592;1.458;2023-12-20T04:31:28;7.76;89.10
65584;DHT22;73032;43.592;1.458;2023-12-20T04:33:55;7.71;89.45
65584;DHT22;73032;43.592;1.458;2023-12-20T04:36:21;7.73;89.26
65584;DHT22;73032;43.592;1.458;2023-12-20T04:38:48;7.74;89.33
65584;DHT22;73032;43.592;1.458;2023-12-20T04:41:15;7.76;89.53
65584;DHT22;73032;43.592;1.458;2023-12-20T04:43:42;7.78;89.45
65584;DHT22;73032;43.592;1.458;2023-12-20T04:46:09;7.77;89.61
65584;DHT22;73032;43.592;1.458;2023-12-20T04:48:36;7.78;89.63
65584;DHT22;73032;43.592;1.458;2023-12-20T04:51:03;7.77;89.94
65584;DHT22;73032;43.592;1.458;2023-12-20T04:53:30;7.78;89.93
65584;DHT22;73032;43.592;1.458;2023-12-20T04:55:56;7.80;89.93
65584;DHT22;73032;43.592;1.458;2023-12-20T04:58:24;7.81;89.89
65584;DHT22;73032;43.592;1.458;2023-12-20T05:00:51;7.78;90.04
65584;DHT22;73032;43.592;1.458;2023-12-20T05:03:17;7.83;90.05
65584;DHT22;73032;43.592;1.458;2023-12-20T05:05:44;7.83;90.10
65584;DHT22;73032;43.592;1.458;2023-12-20T05:08:11;7.86;90.10
65584;DHT22;73032;43.592;1.458;2023-12-20T05:10:37;7.83;90.22
65584;DHT22;73032;43.592;1.458;2023-12-20T05:13:04;7.86;90.45
65584;DHT22;73032;43.592;1.458;2023-12-20T05:15:31;7.88;90.44
65584;DHT22;73032;43.592;1.458;2023-12-20T05:17:58;7.91;90.74
65584;DHT22;73032;43.592;1.458;2023-12-20T05:20:25;7.94;90.65
65584;DHT22;73032;43.592;1.458;2023-12-20T05:22:51;7.98;90.64
65584;DHT22;73032;43.592;1.458;2023-12-20T05:25:18;8.02;90.81
65584;DHT22;73032;43.592;1.458;2023-12-20T05:27:45;8.05;90.80
65584;DHT22;73032;43.592;1.458;2023-12-20T05:30:12;8.09;91.21
65584;DHT22;73032;43.592;1.458;2023-12-20T05:32:40;8.12;91.14
65584;DHT22;73032;43.592;1.458;2023-12-20T05:35:07;8.18;90.81
65584;DHT22;73032;43.592;1.458;2023-12-20T05:37:34;8.21;91.41
65584;DHT22;73032;43.592;1.458;2023-12-20T05:40:00;8.27;91.31
65584;DHT22;73032;43.592;1.458;2023-12-20T05:42:27;8.32;91.32
65584;DHT22;73032;43.592;1.458;2023-12-20T05:44:54;8.35;91.51
65584;DHT22;73032;43.592;1.458;2023-12-20T05:47:24;8.38;91.38
65584;DHT22;73032;43.592;1.458;2023-12-20T05:49:51;8.45;91.44
65584;DHT22;73032;43.592;1.458;2023-12-20T05:52:17;8.48;91.65
65584;DHT22;73032;43.592;1.458;2023-12-20T05:54:45;8.51;91.87
65584;DHT22;73032;43.592;1.458;2023-12-20T05:57:11;8.55;91.96
65584;DHT22;73032;43.592;1.458;2023-12-20T05:59:38;8.61;92.01
65584;DHT22;73032;43.592;1.458;2023-12-20T06:02:05;8.65;92.15
65584;DHT22;73032;43.592;1.458;2023-12-20T06:04:32;8.63;92.13
65584;DHT22;73032;43.592;1.458;2023-12-20T06:06:59;8.68;92.06
65584;DHT22;73032;43.592;1.458;2023-12-20T06:09:29;8.69;92.20
65584;DHT22;73032;43.592;1.458;2023-12-20T06:11:57;8.72;92.11
65584;DHT22;73032;43.592;1.458;2023-12-20T06:14:24;8.77;92.18
65584;DHT22;73032;43.592;1.458;2023-12-20T06:16:51;8.77;92.30
65584;DHT22;73032;43.592;1.458;2023-12-20T06:19:17;8.80;92.22
65584;DHT22;73032;43.592;1.458;2023-12-20T06:21:44;8.77;92.30
65584;DHT22;73032;43.592;1.458;2023-12-20T06:24:11;8.83;92.48
65584;DHT22;73032;43.592;1.458;2023-12-20T06:26:38;8.85;92.33
65584;DHT22;73032;43.592;1.458;2023-12-20T06:29:05;8.87;92.25
65584;DHT22;73032;43.592;1.458;2023-12-20T06:31:32;8.89;92.32
65584;DHT22;73032;43.592;1.458;2023-12-20T06:33:59;8.90;92.58
65584;DHT22;73032;43.592;1.458;2023-12-20T06:36:26;8.93;92.71
65584;DHT22;73032;43.592;1.458;2023-12-20T06:38:53;8.96;92.76
65584;DHT22;73032;43.592;1.458;2023-12-20T06:41:20;8.96;92.66
65584;DHT22;73032;43.592;1.458;2023-12-20T06:43:47;8.97;92.57
65584;DHT22;73032;43.592;1.458;2023-12-20T06:46:16;9.00;92.70
65584;DHT22;73032;43.592;1.458;2023-12-20T06:48:44;9.03;92.73
65584;DHT22;73032;43.592;1.458;2023-12-20T06:51:15;9.06;92.78
65584;DHT22;73032;43.592;1.458;2023-12-20T06:53:42;9.07;92.88
65584;DHT22;73032;43.592;1.458;2023-12-20T06:56:10;9.07;92.90
65584;DHT22;73032;43.592;1.458;2023-12-20T06:58:39;9.10;92.88
65584;DHT22;73032;43.592;1.458;2023-12-20T07:01:11;9.15;93.16
65584;DHT22;73032;43.592;1.458;2023-12-20T07:03:38;9.20;93.21
65584;DHT22;73032;43.592;1.458;2023-12-20T07:06:05;9.20;93.17
65584;DHT22;73032;43.592;1.458;2023-12-20T07:08:32;9.24;93.21
65584;DHT22;73032;43.592;1.458;2023-12-20T07:10:59;9.26;93.18
65584;DHT22;73032;43.592;1.458;2023-12-20T07:13:26;9.26;93.09
65584;DHT22;73032;43.592;1.458;2023-12-20T07:15:53;9.30;92.75
65584;DHT22;73032;43.592;1.458;2023-12-20T07:18:19;9.27;92.80
65584;DHT22;73032;43.592;1.458;2023-12-20T07:20:46;9.30;92.67
65584;DHT22;73032;43.592;1.458;2023-12-20T07:23:13;9.26;92.58
65584;DHT22;73032;43.592;1.458;2023-12-20T07:25:40;9.24;92.50
65584;DHT22;73032;43.592;1.458;2023-12-20T07:28:06;9.23;92.36
65584;DHT22;73032;43.592;1.458;2023-12-20T07:30:33;9.22;92.36
65584;DHT22;73032;43.592;1.458;2023-12-20T07:33:00;9.19;92.26
65584;DHT22;73032;43.592;1.458;2023-12-20T07:35:27;9.16;92.14
65584;DHT22;73032;43.592;1.458;2023-12-20T07:37:54;9.15;92.07
65584;DHT22;73032;43.592;1.458;2023-12-20T07:40:21;9.13;92.01
65584;DHT22;73032;43.592;1.458;2023-12-20T07:42:48;9.10;92.14
65584;DHT22;73032;43.592;1.458;2023-12-20T07:45:14;9.09;91.96
65584;DHT22;73032;43.592;1.458;2023-12-20T07:47:41;9.07;92.08
65584;DHT22;73032;43.592;1.458;2023-12-20T07:50:10;9.06;91.94
65584;DHT22;73032;43.592;1.458;2023-12-20T07:52:37;9.07;91.88
65584;DHT22;73032;43.592;1.458;2023-12-20T07:55:04;9.05;91.91
65584;DHT22;73032;43.592;1.458;2023-12-20T07:57:31;9.05;91.79
65584;DHT22;73032;43.592;1.458;2023-12-20T08:00:00;9.05;91.74
65584;DHT22;73032;43.592;1.458;2023-12-20T08:02:27;8.99;91.66
65584;DHT22;73032;43.592;1.458;2023-12-20T08:04:54;8.96;91.71
65584;DHT22;73032;43.592;1.458;2023-12-20T08:07:20;8.96;91.72
65584;DHT22;73032;43.592;1.458;2023-12-20T08:09:47;8.92;91.67
65584;DHT22;73032;43.592;1.458;2023-12-20T08:12:14;8.90;91.57
65584;DHT22;73032;43.592;1.458;2023-12-20T08:14:43;8.83;91.15
65584;DHT22;73032;43.592;1.458;2023-12-20T08:17:10;8.80;91.49
65584;DHT22;73032;43.592;1.458;2023-12-20T08:19:36;8.77;91.56
65584;DHT22;73032;43.592;1.458;2023-12-20T08:22:03;8.72;91.62
65584;DHT22;73032;43.592;1.458;2023-12-20T08:24:30;8.73;91.60
65584;DHT22;73032;43.592;1.458;2023-12-20T08:26:56;8.72;91.62
65584;DHT22;73032;43.592;1.458;2023-12-20T08:29:23;8.73;91.72
65584;DHT22;73032;43.592;1.458;2023-12-20T08:31:53;8.75;91.79
65584;DHT22;73032;43.592;1.458;2023-12-20T08:34:23;8.76;91.52
65584;DHT22;73032;43.592;1.458;2023-12-20T08:36:53;8.77;91.53
65584;DHT22;73032;43.592;1.458;2023-12-20T08:39:20;8.76;91.40
65584;DHT22;73032;43.592;1.458;2023-12-20T08:41:46;8.77;91.43
65584;DHT22;73032;43.592;1.458;2023-12-20T08:44:13;8.75;91.35
65584;DHT22;73032;43.592;1.458;2023-12-20T08:46:40;8.76;91.38
65584;DHT22;73032;43.592;1.458;2023-12-20T08:49:07;8.76;91.34
65584;DHT22;73032;43.592;1.458;2023-12-20T08:51:35;8.76;91.32
65584;DHT22;73032;43.592;1.458;2023-12-20T08:54:02;8.76;91.35
65584;DHT22;73032;43.592;1.458;2023-12-20T08:56:28;8.75;91.28
65584;DHT22;73032;43.592;1.458;2023-12-20T08:58:55;8.80;91.31
65584;DHT22;73032;43.592;1.458;2023-12-20T09:01:22;8.80;91.14
65584;DHT22;73032;43.592;1.458;2023-12-20T09:03:48;8.86;90.99
65584;DHT22;73032;43.592;1.458;2023-12-20T09:06:15;8.87;90.81
65584;DHT22;73032;43.592;1.458;2023-12-20T09:08:42;8.87;90.72
65584;DHT22;73032;43.592;1.458;2023-12-20T09:11:10;8.86;90.65
65584;DHT22;73032;43.592;1.458;2023-12-20T09:13:37;8.86;90.46
65584;DHT22;73032;43.592;1.458;2023-12-20T09:16:04;8.86;90.46
65584;DHT22;73032;43.592;1.458;2023-12-20T09:18:31;8.87;90.46
65584;DHT22;73032;43.592;1.458;2023-12-20T09:20:58;8.90;90.46
65584;DHT22;73032;43.592;1.458;2023-12-20T09:23:24;8.86;90.31
65584;DHT22;73032;43.592;1.458;2023-12-20T09:25:51;8.87;90.19
65584;DHT22;73032;43.592;1.458;2023-12-20T09:28:22;8.89;90.23
65584;DHT22;73032;43.592;1.458;2023-12-20T09:30:49;8.86;90.14
65584;DHT22;73032;43.592;1.458;2023-12-20T09:33:15;8.89;89.97
65584;DHT22;73032;43.592;1.458;2023-12-20T09:35:43;8.92;89.88
65584;DHT22;73032;43.592;1.458;2023-12-20T09:38:10;8.92;89.97
65584;DHT22;73032;43.592;1.458;2023-12-20T09:40:41;9.00;89.87
65584;DHT22;73032;43.592;1.458;2023-12-20T09:43:14;8.99;89.70
65584;DHT22;73032;43.592;1.458;2023-12-20T09:45:45;9.00;89.15
65584;DHT22;73032;43.592;1.458;2023-12-20T09:48:13;8.96;88.74
65584;DHT22;73032;43.592;1.458;2023-12-20T09:50:41;8.96;88.38
65584;DHT22;73032;43.592;1.458;2023-12-20T09:53:15;8.97;88.54
65584;DHT22;73032;43.592;1.458;2023-12-20T09:55:45;9.03;88.46
65584;DHT22;73032;43.592;1.458;2023-12-20T09:58:11;9.05;88.35
65584;DHT22;73032;43.592;1.458;2023-12-20T10:00:41;9.12;88.37
65584;DHT22;73032;43.592;1.458;2023-12-20T10:03:11;9.19;87.94
65584;DHT22;73032;43.592;1.458;2023-12-20T10:05:46;9.26;88.03
65584;DHT22;73032;43.592;1.458;2023-12-20T10:08:16;9.30;88.15
65584;DHT22;73032;43.592;1.458;2023-12-20T10:10:42;9.33;87.86
65584;DHT22;73032;43.592;1.458;2023-12-20T10:13:15;9.33;87.73
65584;DHT22;73032;43.592;1.458;2023-12-20T10:15:41;9.31;87.22
65584;DHT22;73032;43.592;1.458;2023-12-20T10:18:09;9.38;87.54
65584;DHT22;73032;43.592;1.458;2023-12-20T10:20:37;9.43;87.57
65584;DHT22;73032;43.592;1.458;2023-12-20T10:23:04;9.51;87.61
65584;DHT22;73032;43.592;1.458;2023-12-20T10:25:30;9.52;87.31
65584;DHT22;73032;43.592;1.458;2023-12-20T10:30:36;9.60;86.91
65584;DHT22;73032;43.592;1.458;2023-12-20T10:33:03;9.64;86.87
65584;DHT22;73032;43.592;1.458;2023-12-20T10:35:31;9.74;86.89
65584;DHT22;73032;43.592;1.458;2023-12-20T10:38:03;9.84;86.69
65584;DHT22;73032;43.592;1.458;2023-12-20T10:40:34;9.85;85.78
65584;DHT22;73032;43.592;1.458;2023-12-20T10:43:02;9.91;85.56
65584;DHT22;73032;43.592;1.458;2023-12-20T10:45:29;9.97;85.63
65584;DHT22;73032;43.592;1.458;2023-12-20T10:47:57;10.02;84.90
65584;DHT22;73032;43.592;1.458;2023-12-20T10:50:27;10.09;84.32
65584;DHT22;73032;43.592;1.458;2023-12-20T10:52:55;10.16;82.37
65584;DHT22;73032;43.592;1.458;2023-12-20T10:55:23;10.49;81.57
65584;DHT22;73032;43.592;1.458;2023-12-20T10:58:10;10.75;80.32
65584;DHT22;73032;43.592;1.458;2023-12-20T11:00:40;10.89;80.07
65584;DHT22;73032;43.592;1.458;2023-12-20T11:03:11;10.97;78.63
65584;DHT22;73032;43.592;1.458;2023-12-20T11:05:47;11.34;77.96
65584;DHT22;73032;43.592;1.458;2023-12-20T11:08:25;11.50;78.38
65584;DHT22;73032;43.592;1.458;2023-12-20T11:11:03;12.12;76.51
65584;DHT22;73032;43.592;1.458;2023-12-20T11:13:34;12.36;74.56
65584;DHT22;73032;43.592;1.458;2023-12-20T11:16:01;12.49;74.13
65584;DHT22;73032;43.592;1.458;2023-12-20T11:18:30;12.61;73.58
65584;DHT22;73032;43.592;1.458;2023-12-20T11:21:15;12.45;72.87
65584;DHT22;73032;43.592;1.458;2023-12-20T11:23:42;12.49;72.71
65584;DHT22;73032;43.592;1.458;2023-12-20T11:26:09;12.35;72.25
65584;DHT22;73032;43.592;1.458;2023-12-20T11:28:36;12.25;72.64
65584;DHT22;73032;43.592;1.458;2023-12-20T11:31:03;12.24;71.89
65584;DHT22;73032;43.592;1.458;2023-12-20T11:33:36;12.09;71.92
65584;DHT22;73032;43.592;1.458;2023-12-20T11:36:13;12.33;72.38
65584;DHT22;73032;43.592;1.458;2023-12-20T11:38:58;12.50;71.65
65584;DHT22;73032;43.592;1.458;2023-12-20T11:41:26;12.76;70.17
65584;DHT22;73032;43.592;1.458;2023-12-20T11:43:54;13.07;70.11
65584;DHT22;73032;43.592;1.458;2023-12-20T11:46:21;13.15;68.67
65584;DHT22;73032;43.592;1.458;2023-12-20T11:48:48;13.21;68.87
65584;DHT22;73032;43.592;1.458;2023-12-20T11:51:15;13.40;67.49
65584;DHT22;73032;43.592;1.458;2023-12-20T11:53:42;13.53;67.18
65584;DHT22;73032;43.592;1.458;2023-12-20T11:56:09;13.65;65.94
65584;DHT22;73032;43.592;1.458;2023-12-20T11:58:36;13.54;65.44
65584;DHT22;73032;43.592;1.458;2023-12-20T12:01:03;13.40;65.48
65584;DHT22;73032;43.592;1.458;2023-12-20T12:03:34;13.62;64.95
65584;DHT22;73032;43.592;1.458;2023-12-20T12:06:01;13.25;64.17
65584;DHT22;73032;43.592;1.458;2023-12-20T12:08:31;13.00;64.40
65584;DHT22;73032;43.592;1.458;2023-12-20T12:10:58;13.21;64.90
65584;DHT22;73032;43.592;1.458;2023-12-20T12:13:25;13.44;63.04
65584;DHT22;73032;43.592;1.458;2023-12-20T12:15:54;13.48;63.88
65584;DHT22;73032;43.592;1.458;2023-12-20T12:18:21;13.62;63.02
65584;DHT22;73032;43.592;1.458;2023-12-20T12:20:48;13.64;63.07
65584;DHT22;73032;43.592;1.458;2023-12-20T12:23:22;13.75;61.88
65584;DHT22;73032;43.592;1.458;2023-12-20T12:25:50;13.79;61.80
65584;DHT22;73032;43.592;1.458;2023-12-20T12:28:16;13.89;61.54
65584;DHT22;73032;43.592;1.458;2023-12-20T12:30:56;13.90;60.54
65584;DHT22;73032;43.592;1.458;2023-12-20T12:33:27;13.94;61.17
65584;DHT22;73032;43.592;1.458;2023-12-20T12:35:54;14.02;60.78
65584;DHT22;73032;43.592;1.458;2023-12-20T12:38:22;14.04;59.90
65584;DHT22;73032;43.592;1.458;2023-12-20T12:40:49;13.54;60.37
65584;DHT22;73032;43.592;1.458;2023-12-20T12:43:16;12.87;62.38
65584;DHT22;73032;43.592;1.458;2023-12-20T12:45:43;12.28;63.38
65584;DHT22;73032;43.592;1.458;2023-12-20T12:48:10;11.81;64.86
65584;DHT22;73032;43.592;1.458;2023-12-20T12:50:37;11.54;66.08
65584;DHT22;73032;43.592;1.458;2023-12-20T12:53:04;11.34;66.85
65584;DHT22;73032;43.592;1.458;2023-12-20T12:55:30;11.79;65.95
65584;DHT22;73032;43.592;1.458;2023-12-20T12:57:57;11.95;64.73
65584;DHT22;73032;43.592;1.458;2023-12-20T13:00:24;11.77;64.79
65584;DHT22;73032;43.592;1.458;2023-12-20T13:02:52;11.65;64.30
65584;DHT22;73032;43.592;1.458;2023-12-20T13:05:21;12.02;64.83
65584;DHT22;73032;43.592;1.458;2023-12-20T13:07:48;12.38;64.53
65584;DHT22;73032;43.592;1.458;2023-12-20T13:10:15;12.69;63.01
65584;DHT22;73032;43.592;1.458;2023-12-20T13:12:45;12.79;62.40
65584;DHT22;73032;43.592;1.458;2023-12-20T13:15:12;12.96;61.15
65584;DHT22;73032;43.592;1.458;2023-12-20T13:17:39;12.99;61.46
65584;DHT22;73032;43.592;1.458;2023-12-20T13:20:07;12.87;60.56
65584;DHT22;73032;43.592;1.458;2023-12-20T13:22:34;12.91;60.56
65584;DHT22;73032;43.592;1.458;2023-12-20T13:25:00;12.96;59.86
65584;DHT22;73032;43.592;1.458;2023-12-20T13:27:29;12.69;60.43
65584;DHT22;73032;43.592;1.458;2023-12-20T13:29:58;12.18;61.41
65584;DHT22;73032;43.592;1.458;2023-12-20T13:32:24;11.92;62.93
65584;DHT22;73032;43.592;1.458;2023-12-20T13:34:51;11.60;63.91
65584;DHT22;73032;43.592;1.458;2023-12-20T13:37:21;11.19;64.43
65584;DHT22;73032;43.592;1.458;2023-12-20T13:39:48;11.01;65.48
65584;DHT22;73032;43.592;1.458;2023-12-20T13:42:15;10.80;66.46
65584;DHT22;73032;43.592;1.458;2023-12-20T13:44:41;10.65;66.53
65584;DHT22;73032;43.592;1.458;2023-12-20T13:47:08;10.48;66.80
65584;DHT22;73032;43.592;1.458;2023-12-20T13:49:35;10.41;67.70
65584;DHT22;73032;43.592;1.458;2023-12-20T13:52:02;10.34;68.48
65584;DHT22;73032;43.592;1.458;2023-12-20T13:54:30;10.25;68.65
65584;DHT22;73032;43.592;1.458;2023-12-20T13:56:57;10.21;69.21
65584;DHT22;73032;43.592;1.458;2023-12-20T13:59:38;10.21;69.54
65584;DHT22;73032;43.592;1.458;2023-12-20T14:02:05;10.19;69.92
65584;DHT22;73032;43.592;1.458;2023-12-20T14:04:31;10.16;70.12
65584;DHT22;73032;43.592;1.458;2023-12-20T14:07:09;10.14;70.08
65584;DHT22;73032;43.592;1.458;2023-12-20T14:09:38;10.05;70.76
65584;DHT22;73032;43.592;1.458;2023-12-20T14:12:05;10.06;71.09
65584;DHT22;73032;43.592;1.458;2023-12-20T14:14:32;10.04;71.18
65584;DHT22;73032;43.592;1.458;2023-12-20T14:16:59;10.06;71.31
65584;DHT22;73032;43.592;1.458;2023-12-20T14:19:25;10.06;71.80
65584;DHT22;73032;43.592;1.458;2023-12-20T14:21:52;10.05;71.38
65584;DHT22;73032;43.592;1.458;2023-12-20T14:24:19;10.04;71.84
65584;DHT22;73032;43.592;1.458;2023-12-20T14:26:45;10.01;72.10
65584;DHT22;73032;43.592;1.458;2023-12-20T14:29:12;10.02;71.84
65584;DHT22;73032;43.592;1.458;2023-12-20T14:31:39;9.95;71.40
65584;DHT22;73032;43.592;1.458;2023-12-20T14:34:07;9.88;71.52
65584;DHT22;73032;43.592;1.458;2023-12-20T14:36:35;9.80;72.16
65584;DHT22;73032;43.592;1.458;2023-12-20T14:39:02;9.78;72.42
65584;DHT22;73032;43.592;1.458;2023-12-20T14:41:30;9.73;72.13
65584;DHT22;73032;43.592;1.458;2023-12-20T14:43:58;9.68;72.25
65584;DHT22;73032;43.592;1.458;2023-12-20T14:46:27;9.67;72.35
65584;DHT22;73032;43.592;1.458;2023-12-20T14:48:55;9.67;72.67
65584;DHT22;73032;43.592;1.458;2023-12-20T14:51:22;9.67;72.64
65584;DHT22;73032;43.592;1.458;2023-12-20T14:53:51;9.68;72.79
65584;DHT22;73032;43.592;1.458;2023-12-20T14:56:18;9.65;72.49
65584;DHT22;73032;43.592;1.458;2023-12-20T14:58:46;9.62;72.78
65584;DHT22;73032;43.592;1.458;2023-12-20T15:01:14;9.64;72.70
65584;DHT22;73032;43.592;1.458;2023-12-20T15:03:41;9.62;73.14
65584;DHT22;73032;43.592;1.458;2023-12-20T15:06:07;9.62;72.93
65584;DHT22;73032;43.592;1.458;2023-12-20T15:08:38;9.60;73.04
65584;DHT22;73032;43.592;1.458;2023-12-20T15:11:05;9.55;72.50
65584;DHT22;73032;43.592;1.458;2023-12-20T15:13:31;9.50;72.35
65584;DHT22;73032;43.592;1.458;2023-12-20T15:15:59;9.50;72.61
65584;DHT22;73032;43.592;1.458;2023-12-20T15:18:28;9.50;72.59
65584;DHT22;73032;43.592;1.458;2023-12-20T15:20:57;9.46;72.47
65584;DHT22;73032;43.592;1.458;2023-12-20T15:23:24;9.44;72.50
65584;DHT22;73032;43.592;1.458;2023-12-20T15:25:52;9.44;72.79
65584;DHT22;73032;43.592;1.458;2023-12-20T15:28:21;9.44;73.34
65584;DHT22;73032;43.592;1.458;2023-12-20T15:30:48;9.44;73.11
65584;DHT22;73032;43.592;1.458;2023-12-20T15:33:14;9.47;72.99
65584;DHT22;73032;43.592;1.458;2023-12-20T15:35:41;9.46;73.46
65584;DHT22;73032;43.592;1.458;2023-12-20T15:38:08;9.48;73.36
65584;DHT22;73032;43.592;1.458;2023-12-20T15:40:35;9.48;73.56
65584;DHT22;73032;43.592;1.458;2023-12-20T15:43:05;9.50;73.89
65584;DHT22;73032;43.592;1.458;2023-12-20T15:45:35;9.50;73.60
65584;DHT22;73032;43.592;1.458;2023-12-20T15:48:04;9.50;73.89